createdAt,value
2019-05-01T00:01:02.677Z,99.90
2019-05-01T00:03:32.913Z,99.90
2019-05-01T00:06:02.995Z,99.90
2019-05-01T00:08:31.510Z,99.90
2019-05-01T00:11:00.075Z,99.90
2019-05-01T00:13:28.827Z,99.90
2019-05-01T00:15:57.407Z,99.90
2019-05-01T00:18:25.947Z,99.90
2019-05-01T00:20:54.571Z,99.90
2019-05-01T00:23:23.044Z,99.90
2019-05-01T00:25:51.553Z,99.90
2019-05-01T00:28:20.175Z,99.90
2019-05-01T00:30:48.638Z,99.90
2019-05-01T00:33:17.113Z,99.90
2019-05-01T00:35:45.588Z,99.90
2019-05-01T00:38:14.145Z,99.90
2019-05-01T00:40:42.662Z,99.90
2019-05-01T00:43:11.170Z,99.90
2019-05-01T00:45:39.627Z,99.90
2019-05-01T00:48:08.102Z,99.90
2019-05-01T00:50:36.582Z,99.90
2019-05-01T00:53:05.260Z,99.90
2019-05-01T00:55:41.310Z,99.90
2019-05-01T00:58:17.237Z,99.90
2019-05-01T01:00:50.193Z,99.90
2019-05-01T01:03:18.820Z,99.90
2019-05-01T01:05:47.301Z,99.90
2019-05-01T01:08:16.045Z,99.90
2019-05-01T01:10:44.617Z,99.90
2019-05-01T01:13:13.162Z,99.90
2019-05-01T01:15:41.715Z,99.90
2019-05-01T01:18:10.346Z,99.90
2019-05-01T01:20:38.976Z,99.90
2019-05-01T01:23:07.656Z,99.90
2019-05-01T01:25:36.279Z,99.90
2019-05-01T01:28:04.996Z,99.90
2019-05-01T01:30:33.548Z,99.90
2019-05-01T01:33:02.073Z,99.90
2019-05-01T01:35:30.560Z,99.90
2019-05-01T01:37:59.027Z,99.90
2019-05-01T01:40:27.588Z,99.90
2019-05-01T01:42:58.007Z,99.90
2019-05-01T01:45:44.679Z,99.90
2019-05-01T01:48:17.436Z,99.90
2019-05-01T01:50:46.746Z,99.90
2019-05-01T01:53:18.589Z,99.90
2019-05-01T01:55:47.809Z,99.90
2019-05-01T01:58:17.523Z,99.90
2019-05-01T02:00:47.859Z,99.90
2019-05-01T02:03:16.562Z,99.90
2019-05-01T02:05:45.182Z,99.90
2019-05-01T02:08:13.877Z,99.90
2019-05-01T02:10:43.322Z,99.90
2019-05-01T02:13:12.079Z,99.90
2019-05-01T02:15:40.642Z,99.90
2019-05-01T02:18:09.169Z,99.90
2019-05-01T02:20:37.806Z,99.90
2019-05-01T02:23:06.261Z,99.90
2019-05-01T02:25:36.859Z,99.90
2019-05-01T02:28:25.081Z,99.90
2019-05-01T02:31:07.211Z,99.90
2019-05-01T02:33:37.289Z,99.90
2019-05-01T02:36:07.612Z,99.90
2019-05-01T02:38:37.805Z,99.90
2019-05-01T02:41:09.031Z,99.90
2019-05-01T02:43:38.842Z,99.90
2019-05-01T02:46:10.475Z,99.90
2019-05-01T02:48:58.295Z,99.90
2019-05-01T02:51:27.427Z,99.90
2019-05-01T02:53:56.535Z,99.90
2019-05-01T02:56:33.067Z,99.90
2019-05-01T02:59:03.952Z,99.90
2019-05-01T03:01:46.346Z,99.90
2019-05-01T03:04:04.506Z,99.90
2019-05-01T03:06:34.392Z,99.90
2019-05-01T03:09:06.718Z,99.90
2019-05-01T03:11:36.792Z,99.90
2019-05-01T03:14:07.022Z,99.90
2019-05-01T03:16:36.303Z,99.90
2019-05-01T03:19:24.051Z,99.90
2019-05-01T03:21:54.303Z,99.90
2019-05-01T03:24:24.438Z,99.90
2019-05-01T03:26:53.887Z,99.90
2019-05-01T03:29:23.045Z,99.90
2019-05-01T03:32:14.161Z,99.90
2019-05-01T03:34:22.032Z,99.90
2019-05-01T03:36:50.701Z,99.90
2019-05-01T03:39:19.431Z,99.90
2019-05-01T03:41:48.517Z,99.90
2019-05-01T03:44:17.440Z,99.90
2019-05-01T03:46:46.327Z,99.90
2019-05-01T03:49:15.126Z,99.90
2019-05-01T03:51:44.250Z,99.90
2019-05-01T03:54:13.061Z,99.90
2019-05-01T03:56:41.888Z,99.90
2019-05-01T03:59:10.768Z,99.90
2019-05-01T04:01:41.101Z,99.90
2019-05-01T04:04:14.514Z,99.90
2019-05-01T04:06:43.265Z,99.90
2019-05-01T04:09:11.950Z,99.90
2019-05-01T04:11:40.689Z,99.90
2019-05-01T04:14:09.559Z,99.90
2019-05-01T04:16:39.079Z,99.90
2019-05-01T04:19:07.637Z,99.90
2019-05-01T04:21:38.106Z,99.90
2019-05-01T04:24:06.782Z,99.90
2019-05-01T04:26:35.324Z,99.90
2019-05-01T04:29:08.733Z,99.90
2019-05-01T04:31:50.751Z,99.90
2019-05-01T04:34:21.010Z,99.90
2019-05-01T04:37:06.375Z,99.90
2019-05-01T04:39:35.054Z,99.90
2019-05-01T04:42:03.668Z,99.90
2019-05-01T04:44:32.216Z,99.90
2019-05-01T04:47:01.084Z,99.90
2019-05-01T04:49:29.905Z,99.90
2019-05-01T04:51:58.446Z,99.90
2019-05-01T04:54:27.242Z,99.90
2019-05-01T04:56:56.341Z,99.90
2019-05-01T04:59:25.068Z,99.90
2019-05-01T05:02:01.467Z,99.90
2019-05-01T05:04:30.370Z,99.90
2019-05-01T05:06:59.085Z,99.90
2019-05-01T05:09:47.197Z,99.90
2019-05-01T05:12:17.909Z,99.90
2019-05-01T05:14:54.242Z,99.90
2019-05-01T05:17:26.738Z,99.90
2019-05-01T05:19:56.049Z,99.90
2019-05-01T05:22:25.253Z,99.90
2019-05-01T05:24:54.441Z,99.90
2019-05-01T05:27:24.781Z,99.90
2019-05-01T05:29:56.387Z,99.90
2019-05-01T05:32:26.459Z,99.90
2019-05-01T05:34:57.783Z,99.90
2019-05-01T05:37:32.842Z,99.90
2019-05-01T05:40:02.098Z,99.90
2019-05-01T05:42:30.926Z,99.90
2019-05-01T05:44:59.718Z,99.90
2019-05-01T05:47:28.854Z,99.90
2019-05-01T05:49:57.663Z,99.90
2019-05-01T05:52:40.819Z,99.90
2019-05-01T05:55:16.610Z,99.90
2019-05-01T05:57:56.161Z,99.90
2019-05-01T06:00:27.590Z,99.90
2019-05-01T06:03:03.627Z,99.90
2019-05-01T06:05:36.696Z,99.90
2019-05-01T06:08:14.747Z,99.90
2019-05-01T06:10:58.489Z,99.90
2019-05-01T06:13:28.370Z,99.90
2019-05-01T06:16:04.306Z,99.90
2019-05-01T06:18:39.376Z,99.90
2019-05-01T06:21:09.469Z,99.90
2019-05-01T06:23:52.688Z,99.90
2019-05-01T06:26:31.894Z,99.90
2019-05-01T06:29:02.459Z,99.90
2019-05-01T06:31:31.552Z,99.90
2019-05-01T06:34:00.742Z,99.90
2019-05-01T06:36:29.538Z,99.90
2019-05-01T06:38:58.216Z,99.90
2019-05-01T06:41:28.681Z,99.90
2019-05-01T06:44:02.398Z,99.90
2019-05-01T06:46:35.433Z,99.90
2019-05-01T06:49:08.611Z,99.90
2019-05-01T06:51:42.167Z,99.90
2019-05-01T06:54:16.216Z,99.90
2019-05-01T06:56:44.783Z,99.90
2019-05-01T06:59:14.963Z,99.90
2019-05-01T07:01:44.398Z,99.90
2019-05-01T07:04:14.230Z,99.90
2019-05-01T07:06:43.109Z,99.90
2019-05-01T07:09:13.046Z,99.90
2019-05-01T07:11:47.507Z,99.90
2019-05-01T07:14:16.077Z,99.90
2019-05-01T07:16:43.409Z,99.90
2019-05-01T07:19:12.313Z,99.90
2019-05-01T07:21:41.022Z,99.90
2019-05-01T07:24:09.653Z,99.90
2019-05-01T07:26:38.190Z,99.90
2019-05-01T07:29:09.897Z,99.90
2019-05-01T07:31:38.893Z,99.90
2019-05-01T07:34:16.364Z,99.90
2019-05-01T07:36:38.155Z,99.90
2019-05-01T07:39:09.848Z,99.90
2019-05-01T07:41:38.939Z,99.90
2019-05-01T07:44:09.245Z,99.90
2019-05-01T07:46:39.366Z,99.90
2019-05-01T07:49:08.366Z,99.90
2019-05-01T07:51:42.326Z,99.90
2019-05-01T07:54:09.351Z,99.90
2019-05-01T07:56:38.723Z,99.90
2019-05-01T07:59:07.363Z,99.90
2019-05-01T08:01:37.606Z,99.90
2019-05-01T08:04:06.172Z,99.90
2019-05-01T08:06:34.710Z,99.90
2019-05-01T08:09:04.944Z,99.90
2019-05-01T08:11:33.414Z,99.90
2019-05-01T08:14:07.660Z,99.90
2019-05-01T08:16:32.295Z,99.90
2019-05-01T08:19:04.103Z,99.90
2019-05-01T08:21:40.237Z,99.90
2019-05-01T08:24:08.904Z,99.90
2019-05-01T08:26:39.783Z,99.90
2019-05-01T08:29:25.297Z,99.90
2019-05-01T08:32:03.413Z,99.90
2019-05-01T08:34:32.846Z,99.90
2019-05-01T08:37:01.315Z,99.90
2019-05-01T08:39:29.790Z,99.90
2019-05-01T08:41:58.386Z,99.90
2019-05-01T08:44:29.517Z,99.90
2019-05-01T08:47:00.387Z,99.90
2019-05-01T08:49:36.246Z,99.90
2019-05-01T08:52:11.247Z,99.90
2019-05-01T08:54:35.087Z,99.90
2019-05-01T08:57:03.734Z,99.90
2019-05-01T08:59:32.231Z,99.90
2019-05-01T09:02:09.165Z,99.90
2019-05-01T09:04:32.367Z,99.90
2019-05-01T09:07:01.019Z,99.90
2019-05-01T09:09:29.567Z,99.90
2019-05-01T09:11:58.038Z,99.90
2019-05-01T09:14:29.795Z,99.90
2019-05-01T09:16:56.790Z,99.90
2019-05-01T09:19:25.269Z,99.90
2019-05-01T09:21:53.805Z,99.90
2019-05-01T09:24:23.180Z,99.90
2019-05-01T09:26:59.671Z,99.90
2019-05-01T09:29:38.629Z,99.90
2019-05-01T09:32:10.136Z,99.90
2019-05-01T09:34:37.700Z,99.90
2019-05-01T09:37:06.260Z,99.90
2019-05-01T09:39:35.450Z,99.90
2019-05-01T09:42:06.546Z,94.00
2019-05-01T09:44:34.453Z,89.50
2019-05-01T09:47:03.065Z,80.60
2019-05-01T09:49:31.545Z,90.40
2019-05-01T09:52:23.362Z,94.60
2019-05-01T09:54:51.849Z,93.50
2019-05-01T09:57:20.548Z,86.50
2019-05-01T09:59:49.019Z,82.50
2019-05-01T10:02:17.521Z,78.30
2019-05-01T10:04:46.063Z,70.80
2019-05-01T10:07:14.557Z,70.90
2019-05-01T10:09:47.139Z,67.20
2019-05-01T10:12:13.324Z,67.20
2019-05-01T10:14:41.872Z,66.20
2019-05-01T10:17:13.309Z,61.20
2019-05-01T10:19:40.698Z,61.50
2019-05-01T10:22:09.188Z,61.50
2019-05-01T10:24:39.295Z,64.80
2019-05-01T10:27:09.597Z,69.40
2019-05-01T10:30:01.622Z,70.60
2019-05-01T10:32:29.437Z,71.00
2019-05-01T10:35:02.284Z,70.60
2019-05-01T10:37:33.755Z,79.40
2019-05-01T10:40:01.090Z,75.40
2019-05-01T10:42:29.647Z,76.90
2019-05-01T10:44:58.124Z,79.90
2019-05-01T10:47:26.693Z,82.10
2019-05-01T10:49:55.227Z,80.80
2019-05-01T10:52:23.793Z,72.70
2019-05-01T10:54:52.264Z,73.60
2019-05-01T10:57:20.821Z,70.60
2019-05-01T10:59:49.384Z,66.80
2019-05-01T11:02:19.225Z,64.80
2019-05-01T11:04:47.851Z,63.60
2019-05-01T11:07:16.326Z,63.20
2019-05-01T11:09:44.901Z,65.60
2019-05-01T11:12:13.443Z,64.50
2019-05-01T11:14:41.936Z,64.50
2019-05-01T11:17:10.409Z,67.90
2019-05-01T11:19:38.960Z,65.90
2019-05-01T11:22:07.504Z,66.90
2019-05-01T11:24:36.139Z,65.60
2019-05-01T11:27:04.673Z,63.80
2019-05-01T11:29:33.169Z,61.10
2019-05-01T11:32:14.797Z,63.30
2019-05-01T11:34:56.546Z,61.30
2019-05-01T11:37:41.760Z,58.00
2019-05-01T11:40:12.528Z,56.80
2019-05-01T11:42:40.998Z,56.30
2019-05-01T11:45:10.135Z,55.70
2019-05-01T11:47:38.615Z,57.20
2019-05-01T11:50:07.639Z,56.50
2019-05-01T11:52:36.100Z,56.80
2019-05-01T11:55:05.730Z,57.40
2019-05-01T11:57:34.281Z,56.00
2019-05-01T12:00:02.862Z,54.60
2019-05-01T12:02:31.415Z,54.40
2019-05-01T12:04:59.932Z,58.30
2019-05-01T12:07:28.423Z,58.20
2019-05-01T12:09:56.985Z,58.50
2019-05-01T12:12:27.227Z,57.40
2019-05-01T12:14:55.741Z,55.70
2019-05-01T12:17:28.574Z,56.90
2019-05-01T12:19:57.155Z,58.20
2019-05-01T12:22:25.833Z,60.40
2019-05-01T12:24:54.493Z,63.40
2019-05-01T12:27:23.026Z,63.80
2019-05-01T12:29:51.578Z,65.40
2019-05-01T12:32:20.135Z,65.80
2019-05-01T12:34:48.633Z,65.10
2019-05-01T12:37:34.490Z,64.80
2019-05-01T12:40:03.651Z,55.40
2019-05-01T12:42:33.656Z,53.90
2019-05-01T12:45:02.198Z,53.60
2019-05-01T12:47:32.324Z,53.30
2019-05-01T12:50:00.885Z,52.60
2019-05-01T12:52:45.874Z,54.80
2019-05-01T12:55:32.947Z,53.90
2019-05-01T12:58:10.235Z,56.30
2019-05-01T13:00:43.627Z,57.00
2019-05-01T13:03:12.287Z,53.60
2019-05-01T13:05:41.065Z,53.00
2019-05-01T13:08:09.559Z,52.40
2019-05-01T13:10:38.112Z,52.00
2019-05-01T13:13:06.743Z,53.30
2019-05-01T13:15:35.224Z,51.80
2019-05-01T13:18:04.044Z,53.10
2019-05-01T13:20:32.597Z,53.30
2019-05-01T13:23:01.156Z,53.30
2019-05-01T13:25:29.695Z,53.90
2019-05-01T13:27:59.824Z,54.90
2019-05-01T13:30:35.455Z,56.10
2019-05-01T13:33:04.330Z,57.00
2019-05-01T13:35:32.805Z,55.80
2019-05-01T13:38:01.398Z,56.70
2019-05-01T13:40:30.010Z,58.10
2019-05-01T13:42:58.508Z,58.30
2019-05-01T13:45:27.060Z,58.40
2019-05-01T13:47:55.626Z,59.70
2019-05-01T13:50:24.548Z,59.90
2019-05-01T13:52:53.022Z,60.90
2019-05-01T13:55:21.500Z,59.90
2019-05-01T13:57:49.969Z,61.10
2019-05-01T14:00:19.262Z,61.80
2019-05-01T14:02:47.842Z,61.20
2019-05-01T14:05:16.544Z,62.70
2019-05-01T14:07:45.011Z,64.00
2019-05-01T14:10:13.758Z,64.20
2019-05-01T14:12:42.278Z,64.00
2019-05-01T14:15:10.904Z,61.70
2019-05-01T14:17:39.525Z,63.40
2019-05-01T14:20:10.157Z,63.10
2019-05-01T14:22:42.737Z,64.90
2019-05-01T14:25:12.998Z,66.10
2019-05-01T14:27:41.549Z,67.00
2019-05-01T14:30:10.754Z,67.80
2019-05-01T14:32:39.289Z,68.70
2019-05-01T14:35:09.879Z,68.30
2019-05-01T14:37:38.419Z,68.70
2019-05-01T14:40:07.653Z,70.10
2019-05-01T14:42:36.195Z,72.20
2019-05-01T14:45:07.747Z,71.20
2019-05-01T14:47:36.280Z,71.00
2019-05-01T14:50:06.819Z,69.40
2019-05-01T14:52:35.501Z,70.20
2019-05-01T14:55:06.201Z,72.10
2019-05-01T14:57:34.804Z,73.90
2019-05-01T15:00:05.325Z,74.40
2019-05-01T15:02:33.795Z,74.30
2019-05-01T15:05:02.283Z,76.40
2019-05-01T15:07:42.647Z,77.50
2019-05-01T15:10:01.216Z,77.20
2019-05-01T15:12:29.743Z,79.00
2019-05-01T15:14:59.943Z,79.50
2019-05-01T15:17:33.099Z,81.60
2019-05-01T15:20:05.053Z,81.90
2019-05-01T15:22:33.511Z,82.60
2019-05-01T15:25:01.984Z,83.00
2019-05-01T15:27:30.645Z,83.10
2019-05-01T15:29:59.112Z,83.50
2019-05-01T15:32:27.610Z,83.10
2019-05-01T15:34:56.153Z,85.60
2019-05-01T15:37:24.637Z,82.90
2019-05-01T15:40:00.854Z,82.70
2019-05-01T15:42:33.841Z,81.00
2019-05-01T15:45:02.391Z,81.90
2019-05-01T15:47:30.946Z,82.70
2019-05-01T15:49:59.418Z,83.80
2019-05-01T15:52:27.962Z,84.50
2019-05-01T15:54:56.500Z,87.20
2019-05-01T15:57:24.992Z,88.30
2019-05-01T15:59:53.462Z,86.70
2019-05-01T16:02:21.999Z,89.50
2019-05-01T16:04:50.493Z,90.20
2019-05-01T16:07:19.017Z,90.50
2019-05-01T16:09:47.493Z,92.10
2019-05-01T16:12:26.507Z,92.10
2019-05-01T16:14:55.064Z,93.00
2019-05-01T16:17:23.569Z,93.60
2019-05-01T16:19:52.130Z,93.10
2019-05-01T16:22:20.672Z,92.70
2019-05-01T16:24:49.145Z,93.50
2019-05-01T16:27:17.703Z,95.80
2019-05-01T16:29:46.247Z,94.30
2019-05-01T16:32:14.798Z,94.60
2019-05-01T16:34:43.285Z,96.10
2019-05-01T16:37:11.772Z,96.30
2019-05-01T16:39:53.535Z,97.20
2019-05-01T16:42:22.675Z,97.00
2019-05-01T16:44:51.259Z,97.50
2019-05-01T16:47:19.775Z,98.10
2019-05-01T16:49:48.368Z,97.50
2019-05-01T16:52:18.619Z,98.20
2019-05-01T16:54:58.772Z,98.60
2019-05-01T16:57:17.627Z,99.90
2019-05-01T16:59:46.199Z,99.90
2019-05-01T17:02:19.105Z,99.90
2019-05-01T17:04:51.953Z,99.90
2019-05-01T17:07:25.080Z,99.90
2019-05-01T17:09:58.055Z,99.90
2019-05-01T17:12:28.663Z,99.90
2019-05-01T17:14:57.151Z,99.90
2019-05-01T17:17:26.502Z,99.90
2019-05-01T17:19:55.059Z,99.90
2019-05-01T17:22:23.534Z,99.90
2019-05-01T17:24:52.093Z,99.90
2019-05-01T17:27:20.631Z,99.90
2019-05-01T17:29:49.211Z,99.90
2019-05-01T17:32:18.678Z,99.90
2019-05-01T17:34:47.174Z,99.90
2019-05-01T17:37:15.651Z,99.90
2019-05-01T17:39:44.276Z,99.90
2019-05-01T17:42:12.769Z,99.90
2019-05-01T17:44:41.341Z,99.90
2019-05-01T17:47:09.883Z,99.90
2019-05-01T17:49:41.131Z,99.90
2019-05-01T17:52:08.656Z,99.90
2019-05-01T17:54:37.202Z,99.90
2019-05-01T17:57:05.705Z,99.90
2019-05-01T17:59:34.260Z,99.90
2019-05-01T18:02:20.599Z,99.90
2019-05-01T18:04:53.426Z,99.90
2019-05-01T18:07:21.962Z,99.90
2019-05-01T18:09:51.477Z,99.90
2019-05-01T18:12:23.428Z,99.90
2019-05-01T18:14:51.094Z,99.90
2019-05-01T18:17:19.753Z,99.90
2019-05-01T18:19:48.300Z,99.90
2019-05-01T18:22:32.265Z,99.90
2019-05-01T18:25:17.853Z,99.90
2019-05-01T18:27:49.859Z,99.90
2019-05-01T18:30:20.650Z,99.90
2019-05-01T18:32:52.323Z,99.90
2019-05-01T18:35:19.122Z,99.90
2019-05-01T18:37:49.343Z,99.90
2019-05-01T18:40:25.747Z,99.90
2019-05-01T18:42:54.339Z,99.90
2019-05-01T18:45:48.835Z,99.90
2019-05-01T18:48:17.697Z,99.90
2019-05-01T18:50:49.524Z,99.90
2019-05-01T18:53:16.576Z,99.90
2019-05-01T18:55:45.130Z,99.90
2019-05-01T18:58:13.827Z,99.90
2019-05-01T19:00:43.056Z,99.90
2019-05-01T19:03:11.759Z,99.90
2019-05-01T19:05:43.230Z,99.90
2019-05-01T19:08:10.658Z,99.90
2019-05-01T19:10:39.210Z,99.90
2019-05-01T19:13:07.840Z,99.90
2019-05-01T19:15:36.392Z,99.90
2019-05-01T19:18:05.250Z,99.90
2019-05-01T19:20:33.996Z,99.90
2019-05-01T19:23:02.592Z,99.90
2019-05-01T19:25:31.148Z,99.90
2019-05-01T19:27:59.980Z,99.90
2019-05-01T19:30:28.905Z,99.90
2019-05-01T19:32:57.549Z,99.90
2019-05-01T19:35:29.571Z,99.90
2019-05-01T19:37:57.541Z,99.90
2019-05-01T19:40:30.551Z,99.90
2019-05-01T19:42:57.967Z,99.90
2019-05-01T19:45:26.933Z,99.90
2019-05-01T19:47:55.487Z,99.90
2019-05-01T19:50:24.067Z,99.90
2019-05-01T19:52:52.737Z,99.90
2019-05-01T19:55:21.321Z,99.90
2019-05-01T19:57:49.837Z,99.90
2019-05-01T20:00:23.181Z,99.90
2019-05-01T20:02:54.326Z,99.90
2019-05-01T20:05:26.827Z,99.90
2019-05-01T20:07:56.188Z,99.90
2019-05-01T20:10:22.491Z,99.90
2019-05-01T20:12:51.060Z,99.90
2019-05-01T20:15:19.877Z,99.90
2019-05-01T20:17:49.802Z,99.90
2019-05-01T20:20:18.359Z,99.90
2019-05-01T20:22:48.239Z,99.90
2019-05-01T20:25:19.303Z,99.90
2019-05-01T20:27:50.525Z,99.90
2019-05-01T20:30:17.590Z,99.90
2019-05-01T20:32:46.069Z,99.90
2019-05-01T20:35:14.657Z,99.90
2019-05-01T20:37:43.590Z,99.90
2019-05-01T20:40:12.353Z,99.90
2019-05-01T20:42:41.087Z,99.90
2019-05-01T20:45:17.705Z,99.90
2019-05-01T20:47:45.567Z,99.90
2019-05-01T20:50:13.588Z,99.90
2019-05-01T20:52:40.713Z,99.90
2019-05-01T20:55:09.343Z,99.90
2019-05-01T20:57:42.675Z,99.90
2019-05-01T21:00:16.728Z,99.90
2019-05-01T21:02:44.445Z,99.90
2019-05-01T21:05:32.670Z,99.90
2019-05-01T21:08:02.871Z,99.90
2019-05-01T21:10:50.480Z,99.90
2019-05-01T21:13:23.303Z,99.90
2019-05-01T21:15:48.742Z,99.90
2019-05-01T21:18:20.975Z,99.90
2019-05-01T21:20:47.486Z,99.90
2019-05-01T21:23:16.025Z,99.90
2019-05-01T21:25:44.519Z,99.90
2019-05-01T21:28:14.177Z,99.90
2019-05-01T21:30:43.995Z,99.90
2019-05-01T21:33:13.871Z,99.90
2019-05-01T21:35:44.431Z,99.90
2019-05-01T21:38:12.751Z,99.90
2019-05-01T21:40:43.519Z,99.90
2019-05-01T21:43:13.453Z,99.90
2019-05-01T21:45:43.351Z,99.90
2019-05-01T21:48:13.393Z,99.90
2019-05-01T21:50:43.864Z,99.90
2019-05-01T21:53:12.739Z,99.90
2019-05-01T21:55:41.554Z,99.90
2019-05-01T21:58:10.098Z,99.90
2019-05-01T22:00:40.521Z,99.90
2019-05-01T22:03:09.516Z,99.90
2019-05-01T22:05:39.682Z,99.90
2019-05-01T22:08:08.487Z,99.90
2019-05-01T22:10:36.988Z,99.90
2019-05-01T22:13:05.603Z,99.90
2019-05-01T22:15:35.816Z,99.90
2019-05-01T22:18:21.274Z,99.90
2019-05-01T22:20:51.478Z,99.90
2019-05-01T22:23:22.000Z,99.90
2019-05-01T22:25:53.289Z,99.90
2019-05-01T22:28:23.429Z,99.90
2019-05-01T22:31:10.143Z,99.90
2019-05-01T22:33:39.763Z,99.90
2019-05-01T22:36:08.307Z,99.90
2019-05-01T22:38:37.145Z,99.90
2019-05-01T22:41:10.053Z,99.90
2019-05-01T22:43:38.571Z,99.90
2019-05-01T22:46:08.825Z,99.90
2019-05-01T22:48:37.380Z,99.90
2019-05-01T22:51:07.733Z,99.90
2019-05-01T22:53:36.285Z,99.90
2019-05-01T22:56:04.824Z,99.90
2019-05-01T22:58:33.378Z,99.90
2019-05-01T23:01:01.929Z,99.90
2019-05-01T23:03:50.139Z,99.90
2019-05-01T23:06:18.748Z,99.90
2019-05-01T23:08:47.397Z,99.90
2019-05-01T23:11:20.269Z,99.90
2019-05-01T23:13:46.230Z,99.90
2019-05-01T23:16:15.642Z,99.90
2019-05-01T23:18:47.171Z,99.90
2019-05-01T23:21:15.963Z,99.90
2019-05-01T23:23:44.558Z,99.90
2019-05-01T23:26:16.554Z,99.90
2019-05-01T23:28:43.370Z,99.90
2019-05-01T23:31:11.916Z,99.90
2019-05-01T23:33:40.542Z,99.90
2019-05-01T23:36:09.090Z,99.90
2019-05-01T23:38:37.586Z,99.90
2019-05-01T23:41:06.134Z,99.90
2019-05-01T23:43:34.618Z,99.90
2019-05-01T23:46:03.088Z,99.90
2019-05-01T23:48:31.656Z,99.90
2019-05-01T23:51:00.291Z,99.90
2019-05-01T23:53:28.777Z,99.90
2019-05-01T23:56:00.052Z,99.90
2019-05-01T23:58:27.537Z,99.90
